sensor_id;sensor_type;location;lat;lon;timestamp;temperature;humidity
71879;DHT22;59755;43.834;4.364;2023-08-30T00:00:54;19.60;51.20
71879;DHT22;59755;43.834;4.364;2023-08-30T00:03:20;19.50;51.00
71879;DHT22;59755;43.834;4.364;2023-08-30T00:05:45;19.50;51.10
71879;DHT22;59755;43.834;4.364;2023-08-30T00:08:11;19.50;51.00
71879;DHT22;59755;43.834;4.364;2023-08-30T00:10:38;19.50;51.00
71879;DHT22;59755;43.834;4.364;2023-08-30T00:13:04;19.50;50.90
71879;DHT22;59755;43.834;4.364;2023-08-30T00:15:30;19.60;50.70
71879;DHT22;59755;43.834;4.364;2023-08-30T00:17:55;19.50;50.60
71879;DHT22;59755;43.834;4.364;2023-08-30T00:20:21;19.50;50.70
71879;DHT22;59755;43.834;4.364;2023-08-30T00:22:47;19.60;50.80
71879;DHT22;59755;43.834;4.364;2023-08-30T00:25:14;19.50;50.60
71879;DHT22;59755;43.834;4.364;2023-08-30T00:27:39;19.60;50.70
71879;DHT22;59755;43.834;4.364;2023-08-30T00:30:05;19.60;50.80
71879;DHT22;59755;43.834;4.364;2023-08-30T00:32:33;19.50;50.70
71879;DHT22;59755;43.834;4.364;2023-08-30T00:34:59;19.40;50.90
71879;DHT22;59755;43.834;4.364;2023-08-30T00:37:24;19.30;51.30
71879;DHT22;59755;43.834;4.364;2023-08-30T00:39:50;19.30;51.10
71879;DHT22;59755;43.834;4.364;2023-08-30T00:42:15;19.30;51.10
71879;DHT22;59755;43.834;4.364;2023-08-30T00:44:41;19.30;51.20
71879;DHT22;59755;43.834;4.364;2023-08-30T00:47:07;19.30;51.20
71879;DHT22;59755;43.834;4.364;2023-08-30T00:49:32;19.30;51.10
71879;DHT22;59755;43.834;4.364;2023-08-30T00:51:59;19.20;51.30
71879;DHT22;59755;43.834;4.364;2023-08-30T00:54:26;19.20;51.50
71879;DHT22;59755;43.834;4.364;2023-08-30T00:56:52;19.20;51.40
71879;DHT22;59755;43.834;4.364;2023-08-30T00:59:18;19.10;51.50
71879;DHT22;59755;43.834;4.364;2023-08-30T01:01:43;19.10;51.60
71879;DHT22;59755;43.834;4.364;2023-08-30T01:04:09;19.10;51.60
71879;DHT22;59755;43.834;4.364;2023-08-30T01:06:35;19.10;51.50
71879;DHT22;59755;43.834;4.364;2023-08-30T01:09:01;19.10;51.60
71879;DHT22;59755;43.834;4.364;2023-08-30T01:13:56;19.20;51.30
71879;DHT22;59755;43.834;4.364;2023-08-30T01:16:23;19.10;51.20
71879;DHT22;59755;43.834;4.364;2023-08-30T01:18:50;19.10;51.00
71879;DHT22;59755;43.834;4.364;2023-08-30T01:21:21;19.10;50.80
71879;DHT22;59755;43.834;4.364;2023-08-30T01:23:58;19.10;50.60
71879;DHT22;59755;43.834;4.364;2023-08-30T01:29:10;19.20;50.50
71879;DHT22;59755;43.834;4.364;2023-08-30T01:31:36;19.20;50.40
71879;DHT22;59755;43.834;4.364;2023-08-30T01:34:03;19.20;50.40
71879;DHT22;59755;43.834;4.364;2023-08-30T01:36:29;19.20;50.40
71879;DHT22;59755;43.834;4.364;2023-08-30T01:38:55;19.10;50.60
71879;DHT22;59755;43.834;4.364;2023-08-30T01:41:22;19.10;50.60
71879;DHT22;59755;43.834;4.364;2023-08-30T01:43:49;19.10;50.70
71879;DHT22;59755;43.834;4.364;2023-08-30T01:46:15;19.10;50.80
71879;DHT22;59755;43.834;4.364;2023-08-30T01:48:41;19.00;50.80
71879;DHT22;59755;43.834;4.364;2023-08-30T01:51:07;19.10;50.70
71879;DHT22;59755;43.834;4.364;2023-08-30T01:53:33;19.00;50.80
71879;DHT22;59755;43.834;4.364;2023-08-30T01:55:59;19.00;50.80
71879;DHT22;59755;43.834;4.364;2023-08-30T01:58:25;19.00;51.00
71879;DHT22;59755;43.834;4.364;2023-08-30T02:00:50;19.00;50.80
71879;DHT22;59755;43.834;4.364;2023-08-30T02:03:16;19.00;50.90
71879;DHT22;59755;43.834;4.364;2023-08-30T02:05:50;18.90;51.20
71879;DHT22;59755;43.834;4.364;2023-08-30T02:08:17;18.90;51.20
71879;DHT22;59755;43.834;4.364;2023-08-30T02:10:46;18.80;51.40
71879;DHT22;59755;43.834;4.364;2023-08-30T02:13:13;18.80;51.60
71879;DHT22;59755;43.834;4.364;2023-08-30T02:15:40;18.80;51.50
71879;DHT22;59755;43.834;4.364;2023-08-30T02:18:07;18.90;51.10
71879;DHT22;59755;43.834;4.364;2023-08-30T02:20:32;18.90;50.70
71879;DHT22;59755;43.834;4.364;2023-08-30T02:22:58;18.90;50.70
71879;DHT22;59755;43.834;4.364;2023-08-30T02:25:24;18.90;50.60
71879;DHT22;59755;43.834;4.364;2023-08-30T02:27:50;19.00;50.40
71879;DHT22;59755;43.834;4.364;2023-08-30T02:30:16;18.90;50.50
71879;DHT22;59755;43.834;4.364;2023-08-30T02:32:41;18.90;50.50
71879;DHT22;59755;43.834;4.364;2023-08-30T02:35:07;18.90;50.50
71879;DHT22;59755;43.834;4.364;2023-08-30T02:37:32;18.90;50.60
71879;DHT22;59755;43.834;4.364;2023-08-30T02:39:58;18.90;50.80
71879;DHT22;59755;43.834;4.364;2023-08-30T02:42:24;18.80;51.00
71879;DHT22;59755;43.834;4.364;2023-08-30T02:44:51;18.80;51.10
71879;DHT22;59755;43.834;4.364;2023-08-30T02:47:17;18.80;51.30
71879;DHT22;59755;43.834;4.364;2023-08-30T02:49:42;18.70;51.60
71879;DHT22;59755;43.834;4.364;2023-08-30T02:52:08;18.80;51.40
71879;DHT22;59755;43.834;4.364;2023-08-30T02:54:33;18.70;51.30
71879;DHT22;59755;43.834;4.364;2023-08-30T02:56:59;18.60;51.70
71879;DHT22;59755;43.834;4.364;2023-08-30T02:59:25;18.60;51.60
71879;DHT22;59755;43.834;4.364;2023-08-30T03:01:50;18.50;51.90
71879;DHT22;59755;43.834;4.364;2023-08-30T03:04:16;18.50;51.80
71879;DHT22;59755;43.834;4.364;2023-08-30T03:06:41;18.50;51.70
71879;DHT22;59755;43.834;4.364;2023-08-30T03:09:07;18.60;51.50
71879;DHT22;59755;43.834;4.364;2023-08-30T03:11:33;18.50;51.80
71879;DHT22;59755;43.834;4.364;2023-08-30T03:13:58;18.50;51.40
71879;DHT22;59755;43.834;4.364;2023-08-30T03:16:24;18.50;51.50
71879;DHT22;59755;43.834;4.364;2023-08-30T03:18:50;18.50;51.50
71879;DHT22;59755;43.834;4.364;2023-08-30T03:21:15;18.50;51.40
71879;DHT22;59755;43.834;4.364;2023-08-30T03:23:41;18.50;51.40
71879;DHT22;59755;43.834;4.364;2023-08-30T03:26:07;18.50;51.30
71879;DHT22;59755;43.834;4.364;2023-08-30T03:28:33;18.50;51.20
71879;DHT22;59755;43.834;4.364;2023-08-30T03:30:58;18.60;51.00
71879;DHT22;59755;43.834;4.364;2023-08-30T03:33:24;18.60;51.00
71879;DHT22;59755;43.834;4.364;2023-08-30T03:35:50;18.60;50.80
71879;DHT22;59755;43.834;4.364;2023-08-30T03:38:15;18.60;50.80
71879;DHT22;59755;43.834;4.364;2023-08-30T03:40:41;18.50;50.80
71879;DHT22;59755;43.834;4.364;2023-08-30T03:43:06;18.60;50.60
71879;DHT22;59755;43.834;4.364;2023-08-30T03:45:35;18.60;50.60
71879;DHT22;59755;43.834;4.364;2023-08-30T03:48:01;18.60;50.70
71879;DHT22;59755;43.834;4.364;2023-08-30T03:50:27;18.50;50.60
71879;DHT22;59755;43.834;4.364;2023-08-30T03:52:52;18.60;50.60
71879;DHT22;59755;43.834;4.364;2023-08-30T03:55:18;18.60;50.50
71879;DHT22;59755;43.834;4.364;2023-08-30T03:57:44;18.50;50.60
71879;DHT22;59755;43.834;4.364;2023-08-30T04:00:09;18.50;50.80
71879;DHT22;59755;43.834;4.364;2023-08-30T04:02:36;18.40;51.00
71879;DHT22;59755;43.834;4.364;2023-08-30T04:05:01;18.40;51.00
71879;DHT22;59755;43.834;4.364;2023-08-30T04:07:28;18.30;51.20
71879;DHT22;59755;43.834;4.364;2023-08-30T04:09:54;18.40;51.10
71879;DHT22;59755;43.834;4.364;2023-08-30T04:12:19;18.40;51.20
71879;DHT22;59755;43.834;4.364;2023-08-30T04:14:45;18.30;51.60
71879;DHT22;59755;43.834;4.364;2023-08-30T04:17:11;18.40;52.10
71879;DHT22;59755;43.834;4.364;2023-08-30T04:19:36;18.30;51.70
71879;DHT22;59755;43.834;4.364;2023-08-30T04:22:02;18.30;52.10
71879;DHT22;59755;43.834;4.364;2023-08-30T04:24:28;18.20;53.10
71879;DHT22;59755;43.834;4.364;2023-08-30T04:26:53;18.10;54.10
71879;DHT22;59755;43.834;4.364;2023-08-30T04:29:19;18.10;53.20
71879;DHT22;59755;43.834;4.364;2023-08-30T04:31:45;18.10;53.30
71879;DHT22;59755;43.834;4.364;2023-08-30T04:34:10;18.00;52.60
71879;DHT22;59755;43.834;4.364;2023-08-30T04:36:36;17.90;52.90
71879;DHT22;59755;43.834;4.364;2023-08-30T04:39:02;17.80;52.90
71879;DHT22;59755;43.834;4.364;2023-08-30T04:41:27;17.70;53.30
71879;DHT22;59755;43.834;4.364;2023-08-30T04:43:53;17.60;53.60
71879;DHT22;59755;43.834;4.364;2023-08-30T04:46:18;17.60;53.90
71879;DHT22;59755;43.834;4.364;2023-08-30T04:48:44;17.60;53.50
71879;DHT22;59755;43.834;4.364;2023-08-30T04:51:11;17.50;53.80
71879;DHT22;59755;43.834;4.364;2023-08-30T04:53:36;17.50;53.80
71879;DHT22;59755;43.834;4.364;2023-08-30T04:56:09;17.50;53.90
71879;DHT22;59755;43.834;4.364;2023-08-30T04:58:35;17.50;54.00
71879;DHT22;59755;43.834;4.364;2023-08-30T05:01:00;17.40;54.10
71879;DHT22;59755;43.834;4.364;2023-08-30T05:03:26;17.40;54.30
71879;DHT22;59755;43.834;4.364;2023-08-30T05:05:52;17.30;54.40
71879;DHT22;59755;43.834;4.364;2023-08-30T05:08:18;17.40;54.30
71879;DHT22;59755;43.834;4.364;2023-08-30T05:10:43;17.40;54.10
71879;DHT22;59755;43.834;4.364;2023-08-30T05:13:09;17.50;54.10
71879;DHT22;59755;43.834;4.364;2023-08-30T05:15:35;17.50;53.90
71879;DHT22;59755;43.834;4.364;2023-08-30T05:18:01;17.60;53.90
71879;DHT22;59755;43.834;4.364;2023-08-30T05:20:26;17.70;53.40
71879;DHT22;59755;43.834;4.364;2023-08-30T05:22:52;17.70;53.30
71879;DHT22;59755;43.834;4.364;2023-08-30T05:25:17;17.70;53.20
71879;DHT22;59755;43.834;4.364;2023-08-30T05:27:43;17.70;53.20
71879;DHT22;59755;43.834;4.364;2023-08-30T05:30:09;17.70;53.30
71879;DHT22;59755;43.834;4.364;2023-08-30T05:32:34;17.60;53.60
71879;DHT22;59755;43.834;4.364;2023-08-30T05:35:00;17.50;53.90
71879;DHT22;59755;43.834;4.364;2023-08-30T05:37:26;17.50;54.10
71879;DHT22;59755;43.834;4.364;2023-08-30T05:39:51;17.40;54.20
71879;DHT22;59755;43.834;4.364;2023-08-30T05:42:17;17.40;54.20
71879;DHT22;59755;43.834;4.364;2023-08-30T05:44:42;17.40;54.30
71879;DHT22;59755;43.834;4.364;2023-08-30T05:47:08;17.30;54.40
71879;DHT22;59755;43.834;4.364;2023-08-30T05:49:34;17.30;54.40
71879;DHT22;59755;43.834;4.364;2023-08-30T05:51:59;17.40;54.30
71879;DHT22;59755;43.834;4.364;2023-08-30T05:54:25;17.50;53.90
71879;DHT22;59755;43.834;4.364;2023-08-30T05:56:54;17.50;53.70
71879;DHT22;59755;43.834;4.364;2023-08-30T05:59:20;17.50;53.80
71879;DHT22;59755;43.834;4.364;2023-08-30T06:01:46;17.60;53.60
71879;DHT22;59755;43.834;4.364;2023-08-30T06:04:11;17.60;53.50
71879;DHT22;59755;43.834;4.364;2023-08-30T06:06:37;17.70;53.20
71879;DHT22;59755;43.834;4.364;2023-08-30T06:09:02;17.70;53.30
71879;DHT22;59755;43.834;4.364;2023-08-30T06:11:29;17.70;53.10
71879;DHT22;59755;43.834;4.364;2023-08-30T06:13:54;17.70;53.20
71879;DHT22;59755;43.834;4.364;2023-08-30T06:16:20;17.70;53.00
71879;DHT22;59755;43.834;4.364;2023-08-30T06:18:45;17.80;52.70
71879;DHT22;59755;43.834;4.364;2023-08-30T06:21:11;17.70;53.20
71879;DHT22;59755;43.834;4.364;2023-08-30T06:23:37;17.70;52.90
71879;DHT22;59755;43.834;4.364;2023-08-30T06:26:03;17.70;52.80
71879;DHT22;59755;43.834;4.364;2023-08-30T06:28:28;17.80;52.90
71879;DHT22;59755;43.834;4.364;2023-08-30T06:30:54;17.80;52.70
71879;DHT22;59755;43.834;4.364;2023-08-30T06:33:20;17.90;52.30
71879;DHT22;59755;43.834;4.364;2023-08-30T06:35:47;18.00;52.70
71879;DHT22;59755;43.834;4.364;2023-08-30T06:38:13;18.10;52.10
71879;DHT22;59755;43.834;4.364;2023-08-30T06:40:43;18.20;51.90
71879;DHT22;59755;43.834;4.364;2023-08-30T06:43:08;18.30;51.80
71879;DHT22;59755;43.834;4.364;2023-08-30T06:45:34;18.30;51.30
71879;DHT22;59755;43.834;4.364;2023-08-30T06:47:59;18.40;51.10
71879;DHT22;59755;43.834;4.364;2023-08-30T06:50:25;18.50;51.20
71879;DHT22;59755;43.834;4.364;2023-08-30T06:52:52;18.60;50.60
71879;DHT22;59755;43.834;4.364;2023-08-30T06:55:18;18.70;50.10
71879;DHT22;59755;43.834;4.364;2023-08-30T06:57:47;18.80;50.00
71879;DHT22;59755;43.834;4.364;2023-08-30T07:00:13;18.90;49.80
71879;DHT22;59755;43.834;4.364;2023-08-30T07:02:39;18.90;49.40
71879;DHT22;59755;43.834;4.364;2023-08-30T07:05:07;19.00;49.20
71879;DHT22;59755;43.834;4.364;2023-08-30T07:07:33;19.10;49.00
71879;DHT22;59755;43.834;4.364;2023-08-30T07:09:59;19.20;49.00
71879;DHT22;59755;43.834;4.364;2023-08-30T07:12:25;19.20;48.50
71879;DHT22;59755;43.834;4.364;2023-08-30T07:14:51;19.30;48.60
71879;DHT22;59755;43.834;4.364;2023-08-30T07:17:16;19.40;48.40
71879;DHT22;59755;43.834;4.364;2023-08-30T07:19:42;19.50;47.70
71879;DHT22;59755;43.834;4.364;2023-08-30T07:22:07;19.50;47.40
71879;DHT22;59755;43.834;4.364;2023-08-30T07:24:33;19.60;47.40
71879;DHT22;59755;43.834;4.364;2023-08-30T07:26:58;19.70;46.70
71879;DHT22;59755;43.834;4.364;2023-08-30T07:29:24;19.80;46.50
71879;DHT22;59755;43.834;4.364;2023-08-30T07:31:50;19.90;46.30
71879;DHT22;59755;43.834;4.364;2023-08-30T07:34:18;20.00;46.40
71879;DHT22;59755;43.834;4.364;2023-08-30T07:36:44;20.00;46.20
71879;DHT22;59755;43.834;4.364;2023-08-30T07:39:10;20.10;45.80
71879;DHT22;59755;43.834;4.364;2023-08-30T07:41:35;20.10;45.60
71879;DHT22;59755;43.834;4.364;2023-08-30T07:44:01;20.10;45.30
71879;DHT22;59755;43.834;4.364;2023-08-30T07:46:27;20.20;45.60
71879;DHT22;59755;43.834;4.364;2023-08-30T07:48:53;20.20;45.50
71879;DHT22;59755;43.834;4.364;2023-08-30T07:51:19;20.40;44.90
71879;DHT22;59755;43.834;4.364;2023-08-30T07:53:44;20.50;44.70
71879;DHT22;59755;43.834;4.364;2023-08-30T07:56:10;20.50;45.00
71879;DHT22;59755;43.834;4.364;2023-08-30T07:58:36;20.60;44.60
71879;DHT22;59755;43.834;4.364;2023-08-30T08:01:01;20.70;44.60
71879;DHT22;59755;43.834;4.364;2023-08-30T08:03:27;20.70;44.50
71879;DHT22;59755;43.834;4.364;2023-08-30T08:05:52;20.80;44.30
71879;DHT22;59755;43.834;4.364;2023-08-30T08:08:18;20.80;43.90
71879;DHT22;59755;43.834;4.364;2023-08-30T08:10:44;20.90;44.00
71879;DHT22;59755;43.834;4.364;2023-08-30T08:13:09;20.90;43.30
71879;DHT22;59755;43.834;4.364;2023-08-30T08:15:35;21.00;43.80
71879;DHT22;59755;43.834;4.364;2023-08-30T08:18:01;21.00;43.40
71879;DHT22;59755;43.834;4.364;2023-08-30T08:20:28;21.00;43.60
71879;DHT22;59755;43.834;4.364;2023-08-30T08:22:54;21.20;43.30
71879;DHT22;59755;43.834;4.364;2023-08-30T08:25:20;21.20;42.90
71879;DHT22;59755;43.834;4.364;2023-08-30T08:27:47;21.20;43.00
71879;DHT22;59755;43.834;4.364;2023-08-30T08:30:13;21.30;42.90
71879;DHT22;59755;43.834;4.364;2023-08-30T08:32:38;21.40;42.60
71879;DHT22;59755;43.834;4.364;2023-08-30T08:35:04;21.50;42.40
71879;DHT22;59755;43.834;4.364;2023-08-30T08:37:31;21.50;42.80
71879;DHT22;59755;43.834;4.364;2023-08-30T08:39:56;21.60;42.60
71879;DHT22;59755;43.834;4.364;2023-08-30T08:42:22;21.70;42.90
71879;DHT22;59755;43.834;4.364;2023-08-30T08:44:49;21.90;42.60
71879;DHT22;59755;43.834;4.364;2023-08-30T08:47:19;21.90;42.30
71879;DHT22;59755;43.834;4.364;2023-08-30T08:49:44;22.00;42.10
71879;DHT22;59755;43.834;4.364;2023-08-30T08:52:10;22.20;41.90
71879;DHT22;59755;43.834;4.364;2023-08-30T08:54:39;22.30;41.70
71879;DHT22;59755;43.834;4.364;2023-08-30T08:57:08;22.40;40.80
71879;DHT22;59755;43.834;4.364;2023-08-30T08:59:34;22.30;40.80
71879;DHT22;59755;43.834;4.364;2023-08-30T09:02:00;22.40;40.40
71879;DHT22;59755;43.834;4.364;2023-08-30T09:04:25;22.50;40.20
71879;DHT22;59755;43.834;4.364;2023-08-30T09:06:51;22.50;40.00
71879;DHT22;59755;43.834;4.364;2023-08-30T09:09:17;22.60;40.00
71879;DHT22;59755;43.834;4.364;2023-08-30T09:11:43;22.70;39.90
71879;DHT22;59755;43.834;4.364;2023-08-30T09:14:08;22.60;39.80
71879;DHT22;59755;43.834;4.364;2023-08-30T09:16:34;22.80;39.60
71879;DHT22;59755;43.834;4.364;2023-08-30T09:19:01;23.00;39.20
71879;DHT22;59755;43.834;4.364;2023-08-30T09:21:27;23.10;39.10
71879;DHT22;59755;43.834;4.364;2023-08-30T09:24:02;23.10;38.70
71879;DHT22;59755;43.834;4.364;2023-08-30T09:26:28;23.00;38.90
71879;DHT22;59755;43.834;4.364;2023-08-30T09:29:06;23.10;38.70
71879;DHT22;59755;43.834;4.364;2023-08-30T09:31:35;23.20;38.50
71879;DHT22;59755;43.834;4.364;2023-08-30T09:34:01;23.40;38.40
71879;DHT22;59755;43.834;4.364;2023-08-30T09:36:34;23.50;37.90
71879;DHT22;59755;43.834;4.364;2023-08-30T09:39:02;23.70;37.70
71879;DHT22;59755;43.834;4.364;2023-08-30T09:41:28;23.70;37.40
71879;DHT22;59755;43.834;4.364;2023-08-30T09:43:54;23.80;37.50
71879;DHT22;59755;43.834;4.364;2023-08-30T09:46:19;23.90;37.00
71879;DHT22;59755;43.834;4.364;2023-08-30T09:48:45;23.80;37.40
71879;DHT22;59755;43.834;4.364;2023-08-30T09:51:11;23.70;37.20
71879;DHT22;59755;43.834;4.364;2023-08-30T09:53:40;23.90;38.00
71879;DHT22;59755;43.834;4.364;2023-08-30T09:56:06;24.10;37.10
71879;DHT22;59755;43.834;4.364;2023-08-30T09:58:33;24.20;38.00
71879;DHT22;59755;43.834;4.364;2023-08-30T10:00:59;24.30;37.30
71879;DHT22;59755;43.834;4.364;2023-08-30T10:03:29;24.60;37.20
71879;DHT22;59755;43.834;4.364;2023-08-30T10:05:55;24.50;36.60
71879;DHT22;59755;43.834;4.364;2023-08-30T10:08:21;24.70;37.20
71879;DHT22;59755;43.834;4.364;2023-08-30T10:10:47;24.70;36.20
71879;DHT22;59755;43.834;4.364;2023-08-30T10:13:12;25.00;35.60
71879;DHT22;59755;43.834;4.364;2023-08-30T10:15:41;25.00;35.40
71879;DHT22;59755;43.834;4.364;2023-08-30T10:18:09;24.70;35.80
71879;DHT22;59755;43.834;4.364;2023-08-30T10:20:36;25.00;35.40
71879;DHT22;59755;43.834;4.364;2023-08-30T10:23:03;25.30;35.20
71879;DHT22;59755;43.834;4.364;2023-08-30T10:25:29;25.60;34.40
71879;DHT22;59755;43.834;4.364;2023-08-30T10:27:56;25.80;34.20
71879;DHT22;59755;43.834;4.364;2023-08-30T10:30:23;26.10;33.80
